Terminal Aerodrome Forecast
Issued by NWS Melbourne, FL

Home | Current Version | Previous Version | Text Only | Print | Product List | Glossary On
Versions: 1 2 3 4 5 6 7 8 9 10 11 12
000
FTUS42 KMLB 291700
TAFMLB
TAF
KMLB 291740Z 2918/3018 08009KT P6SM SCT040
     FM300100 VRB03KT P6SM SCT250
     FM301400 29009KT P6SM SCT040 BKN250=

USA.gov is the U.S. government's official web portal to all federal, state and local government web resources and services.